sensor_id;sensor_type;location;lat;lon;timestamp;pressure;altitude;pressure_sealevel;temperature;humidity
34921;BME280;21128;50.016;20.002;2022-07-03T00:00:36;99507.73;;;16.85;100.00
34921;BME280;21128;50.016;20.002;2022-07-03T00:03:04;99496.77;;;16.88;100.00
34921;BME280;21128;50.016;20.002;2022-07-03T00:05:31;99489.97;;;16.85;100.00
34921;BME280;21128;50.016;20.002;2022-07-03T00:07:58;99486.49;;;16.85;100.00
34921;BME280;21128;50.016;20.002;2022-07-03T00:10:25;99492.63;;;16.85;100.00
34921;BME280;21128;50.016;20.002;2022-07-03T00:12:52;99490.14;;;16.84;100.00
34921;BME280;21128;50.016;20.002;2022-07-03T00:15:25;99484.01;;;16.83;100.00
34921;BME280;21128;50.016;20.002;2022-07-03T00:17:52;99491.45;;;16.88;100.00
34921;BME280;21128;50.016;20.002;2022-07-03T00:20:19;99486.31;;;16.95;100.00
34921;BME280;21128;50.016;20.002;2022-07-03T00:22:47;99485.14;;;16.97;100.00
34921;BME280;21128;50.016;20.002;2022-07-03T00:25:15;99487.31;;;17.02;100.00
34921;BME280;21128;50.016;20.002;2022-07-03T00:27:43;99489.45;;;17.06;100.00
34921;BME280;21128;50.016;20.002;2022-07-03T00:30:12;99482.16;;;17.08;100.00
34921;BME280;21128;50.016;20.002;2022-07-03T00:32:47;99481.82;;;17.11;100.00
34921;BME280;21128;50.016;20.002;2022-07-03T00:35:16;99487.48;;;17.08;100.00
34921;BME280;21128;50.016;20.002;2022-07-03T00:37:43;99483.30;;;17.06;100.00
34921;BME280;21128;50.016;20.002;2022-07-03T00:40:11;99479.83;;;17.05;100.00
34921;BME280;21128;50.016;20.002;2022-07-03T00:42:38;99474.69;;;17.04;100.00
34921;BME280;21128;50.016;20.002;2022-07-03T00:45:07;99478.17;;;17.04;100.00
34921;BME280;21128;50.016;20.002;2022-07-03T00:47:36;99474.69;;;17.04;100.00
34921;BME280;21128;50.016;20.002;2022-07-03T00:50:07;99467.37;;;17.06;100.00
34921;BME280;21128;50.016;20.002;2022-07-03T00:52:46;99464.58;;;17.07;100.00
34921;BME280;21128;50.016;20.002;2022-07-03T00:55:17;99462.06;;;17.06;100.00
34921;BME280;21128;50.016;20.002;2022-07-03T00:57:50;99459.59;;;17.04;100.00
34921;BME280;21128;50.016;20.002;2022-07-03T01:00:17;99457.93;;;17.03;100.00
34921;BME280;21128;50.016;20.002;2022-07-03T01:02:51;99454.10;;;17.06;100.00
34921;BME280;21128;50.016;20.002;2022-07-03T01:05:37;99451.30;;;17.07;100.00
34921;BME280;21128;50.016;20.002;2022-07-03T01:08:41;99439.34;;;17.03;100.00
34921;BME280;21128;50.016;20.002;2022-07-03T01:11:48;99444.01;;;17.01;100.00
34921;BME280;21128;50.016;20.002;2022-07-03T01:14:38;99441.52;;;17.00;100.00
34921;BME280;21128;50.016;20.002;2022-07-03T01:17:25;99430.73;;;17.01;100.00
34921;BME280;21128;50.016;20.002;2022-07-03T01:20:04;99430.91;;;17.00;100.00
34921;BME280;21128;50.016;20.002;2022-07-03T01:22:40;99432.73;;;16.99;100.00
34921;BME280;21128;50.016;20.002;2022-07-03T01:28:12;99434.05;;;16.95;100.00
34921;BME280;21128;50.016;20.002;2022-07-03T01:30:42;99427.56;;;16.98;100.00
34921;BME280;21128;50.016;20.002;2022-07-03T01:33:26;99421.11;;;17.00;100.00
34921;BME280;21128;50.016;20.002;2022-07-03T01:36:05;99429.08;;;17.00;100.00
34921;BME280;21128;50.016;20.002;2022-07-03T01:38:35;99429.08;;;17.00;100.00
34921;BME280;21128;50.016;20.002;2022-07-03T01:41:04;99429.25;;;16.99;100.00
34921;BME280;21128;50.016;20.002;2022-07-03T01:46:05;99429.73;;;17.02;100.00
34921;BME280;21128;50.016;20.002;2022-07-03T01:48:33;99424.91;;;16.98;100.00
34921;BME280;21128;50.016;20.002;2022-07-03T01:51:02;99423.94;;;16.99;100.00
34921;BME280;21128;50.016;20.002;2022-07-03T01:53:30;99432.39;;;16.94;100.00
34921;BME280;21128;50.016;20.002;2022-07-03T01:56:03;99432.41;;;16.86;100.00
34921;BME280;21128;50.016;20.002;2022-07-03T01:58:30;99431.75;;;16.84;100.00
34921;BME280;21128;50.016;20.002;2022-07-03T02:04:20;99434.07;;;16.79;100.00
34921;BME280;21128;50.016;20.002;2022-07-03T02:06:56;99417.66;;;16.83;100.00
34921;BME280;21128;50.016;20.002;2022-07-03T02:09:36;99423.45;;;16.87;100.00
34921;BME280;21128;50.016;20.002;2022-07-03T02:12:11;99422.27;;;16.89;100.00
34921;BME280;21128;50.016;20.002;2022-07-03T02:14:40;99423.13;;;16.90;100.00
34921;BME280;21128;50.016;20.002;2022-07-03T02:17:20;99420.47;;;16.90;100.00
34921;BME280;21128;50.016;20.002;2022-07-03T02:19:54;99418.12;;;16.95;100.00
34921;BME280;21128;50.016;20.002;2022-07-03T02:22:56;99420.95;;;16.94;100.00
34921;BME280;21128;50.016;20.002;2022-07-03T02:25:26;99417.82;;;16.90;100.00
34921;BME280;21128;50.016;20.002;2022-07-03T02:30:34;99415.48;;;16.87;100.00
34921;BME280;21128;50.016;20.002;2022-07-03T02:33:09;99418.65;;;16.91;100.00
34921;BME280;21128;50.016;20.002;2022-07-03T02:35:37;99418.47;;;16.92;100.00
34921;BME280;21128;50.016;20.002;2022-07-03T02:38:17;99409.51;;;16.93;100.00
34921;BME280;21128;50.016;20.002;2022-07-03T02:46:20;99406.20;;;16.91;100.00
34921;BME280;21128;50.016;20.002;2022-07-03T02:49:16;99407.16;;;16.98;100.00
34921;BME280;21128;50.016;20.002;2022-07-03T02:51:52;99407.33;;;16.97;100.00
34921;BME280;21128;50.016;20.002;2022-07-03T02:54:33;99403.02;;;16.96;100.00
34921;BME280;21128;50.016;20.002;2022-07-03T02:57:07;99403.55;;;16.91;100.00
34921;BME280;21128;50.016;20.002;2022-07-03T03:08:08;99396.61;;;16.74;100.00
34921;BME280;21128;50.016;20.002;2022-07-03T03:10:38;99393.78;;;16.75;100.00
34921;BME280;21128;50.016;20.002;2022-07-03T03:13:11;99397.56;;;16.81;100.00
34921;BME280;21128;50.016;20.002;2022-07-03T03:15:39;99402.88;;;16.81;100.00
34921;BME280;21128;50.016;20.002;2022-07-03T03:18:12;99399.09;;;16.75;100.00
34921;BME280;21128;50.016;20.002;2022-07-03T03:20:46;99402.88;;;16.73;100.00
34921;BME280;21128;50.016;20.002;2022-07-03T03:23:30;99403.88;;;16.72;100.00
34921;BME280;21128;50.016;20.002;2022-07-03T03:25:58;99396.44;;;16.75;100.00
34921;BME280;21128;50.016;20.002;2022-07-03T03:28:33;99407.36;;;16.72;100.00
34921;BME280;21128;50.016;20.002;2022-07-03T03:31:19;99399.25;;;16.82;100.00
34921;BME280;21128;50.016;20.002;2022-07-03T03:33:48;99400.88;;;16.99;100.00
34921;BME280;21128;50.016;20.002;2022-07-03T03:36:18;99399.68;;;17.10;100.00
34921;BME280;21128;50.016;20.002;2022-07-03T03:38:46;99406.64;;;17.11;100.00
34921;BME280;21128;50.016;20.002;2022-07-03T03:41:14;99410.12;;;17.11;100.00
34921;BME280;21128;50.016;20.002;2022-07-03T03:43:47;99403.52;;;17.07;100.00
34921;BME280;21128;50.016;20.002;2022-07-03T03:46:14;99396.52;;;17.06;100.00
34921;BME280;21128;50.016;20.002;2022-07-03T03:48:42;99400.33;;;17.12;100.00
34921;BME280;21128;50.016;20.002;2022-07-03T03:51:09;99396.67;;;17.13;100.00
34921;BME280;21128;50.016;20.002;2022-07-03T03:53:36;99399.48;;;17.20;100.00
34921;BME280;21128;50.016;20.002;2022-07-03T03:56:05;99396.83;;;17.20;100.00
34921;BME280;21128;50.016;20.002;2022-07-03T03:58:40;99397.18;;;17.16;100.00
34921;BME280;21128;50.016;20.002;2022-07-03T04:01:08;99399.68;;;17.10;100.00
34921;BME280;21128;50.016;20.002;2022-07-03T04:03:37;99397.05;;;17.02;100.00
34921;BME280;21128;50.016;20.002;2022-07-03T04:06:04;99392.41;;;16.96;100.00
34921;BME280;21128;50.016;20.002;2022-07-03T04:08:31;99400.89;;;16.91;100.00
34921;BME280;21128;50.016;20.002;2022-07-03T04:10:58;99399.38;;;16.88;100.00
34921;BME280;21128;50.016;20.002;2022-07-03T04:13:25;99401.03;;;16.89;100.00
34921;BME280;21128;50.016;20.002;2022-07-03T04:15:53;99403.38;;;16.93;100.00
34921;BME280;21128;50.016;20.002;2022-07-03T04:18:21;99407.50;;;16.95;100.00
34921;BME280;21128;50.016;20.002;2022-07-03T04:20:48;99402.53;;;17.00;100.00
34921;BME280;21128;50.016;20.002;2022-07-03T04:23:15;99406.82;;;17.09;100.00
34921;BME280;21128;50.016;20.002;2022-07-03T04:25:41;99406.80;;;17.18;100.00
34921;BME280;21128;50.016;20.002;2022-07-03T04:28:09;99409.75;;;17.23;100.00
34921;BME280;21128;50.016;20.002;2022-07-03T04:30:36;99399.81;;;17.25;100.00
34921;BME280;21128;50.016;20.002;2022-07-03T04:33:10;99399.48;;;17.20;100.00
34921;BME280;21128;50.016;20.002;2022-07-03T04:35:36;99404.44;;;17.23;100.00
34921;BME280;21128;50.016;20.002;2022-07-03T04:38:04;99402.47;;;17.25;100.00
34921;BME280;21128;50.016;20.002;2022-07-03T04:40:31;99398.80;;;17.26;100.00
34921;BME280;21128;50.016;20.002;2022-07-03T04:42:58;99400.11;;;17.30;100.00
34921;BME280;21128;50.016;20.002;2022-07-03T04:45:31;99397.59;;;17.36;100.00
34921;BME280;21128;50.016;20.002;2022-07-03T04:47:58;99399.07;;;17.39;100.00
34921;BME280;21128;50.016;20.002;2022-07-03T04:50:25;99399.90;;;17.39;100.00
34921;BME280;21128;50.016;20.002;2022-07-03T04:52:52;99396.12;;;17.34;100.00
34921;BME280;21128;50.016;20.002;2022-07-03T04:55:19;99390.81;;;17.34;100.00
34921;BME280;21128;50.016;20.002;2022-07-03T04:57:52;99381.16;;;17.41;100.00
34921;BME280;21128;50.016;20.002;2022-07-03T05:00:19;99375.95;;;17.48;100.00
34921;BME280;21128;50.016;20.002;2022-07-03T05:02:46;99382.09;;;17.48;100.00
34921;BME280;21128;50.016;20.002;2022-07-03T05:05:12;99379.58;;;17.55;100.00
34921;BME280;21128;50.016;20.002;2022-07-03T05:07:39;99379.55;;;17.63;100.00
34921;BME280;21128;50.016;20.002;2022-07-03T05:10:06;99371.70;;;17.69;100.00
34921;BME280;21128;50.016;20.002;2022-07-03T05:12:33;99375.31;;;17.85;100.00
34921;BME280;21128;50.016;20.002;2022-07-03T05:15:00;99367.05;;;18.03;100.00
34921;BME280;21128;50.016;20.002;2022-07-03T05:17:27;99369.10;;;18.15;100.00
34921;BME280;21128;50.016;20.002;2022-07-03T05:19:54;99367.32;;;18.31;100.00
34921;BME280;21128;50.016;20.002;2022-07-03T05:22:39;99356.47;;;18.55;100.00
34921;BME280;21128;50.016;20.002;2022-07-03T05:25:07;99368.38;;;18.67;100.00
34921;BME280;21128;50.016;20.002;2022-07-03T05:27:37;99370.22;;;18.81;100.00
34921;BME280;21128;50.016;20.002;2022-07-03T05:30:05;99372.52;;;18.99;100.00
34921;BME280;21128;50.016;20.002;2022-07-03T05:32:45;99365.36;;;19.15;100.00
34921;BME280;21128;50.016;20.002;2022-07-03T05:35:12;99360.41;;;19.26;100.00
34921;BME280;21128;50.016;20.002;2022-07-03T05:37:45;99363.14;;;19.33;100.00
34921;BME280;21128;50.016;20.002;2022-07-03T05:40:12;99375.48;;;19.34;100.00
34921;BME280;21128;50.016;20.002;2022-07-03T05:42:39;99364.88;;;19.40;100.00
34921;BME280;21128;50.016;20.002;2022-07-03T05:45:07;99365.60;;;19.49;100.00
34921;BME280;21128;50.016;20.002;2022-07-03T05:47:34;99372.52;;;19.44;100.00
34921;BME280;21128;50.016;20.002;2022-07-03T05:50:01;99363.80;;;19.35;100.00
34921;BME280;21128;50.016;20.002;2022-07-03T05:52:27;99362.59;;;19.37;100.00
34921;BME280;21128;50.016;20.002;2022-07-03T05:54:54;99364.53;;;19.44;100.00
34921;BME280;21128;50.016;20.002;2022-07-03T05:57:21;99368.20;;;19.43;100.00
34921;BME280;21128;50.016;20.002;2022-07-03T05:59:48;99368.20;;;19.43;100.00
34921;BME280;21128;50.016;20.002;2022-07-03T06:02:15;99367.00;;;19.45;100.00
34921;BME280;21128;50.016;20.002;2022-07-03T06:04:41;99373.54;;;19.43;100.00
34921;BME280;21128;50.016;20.002;2022-07-03T06:07:08;99372.05;;;19.40;100.00
34921;BME280;21128;50.016;20.002;2022-07-03T06:09:35;99370.02;;;19.42;100.00
34921;BME280;21128;50.016;20.002;2022-07-03T06:12:02;99362.58;;;19.52;100.00
34921;BME280;21128;50.016;20.002;2022-07-03T06:14:29;99368.55;;;19.69;100.00
34921;BME280;21128;50.016;20.002;2022-07-03T06:16:55;99363.63;;;19.87;100.00
34921;BME280;21128;50.016;20.002;2022-07-03T06:19:22;99366.80;;;19.98;99.83
34921;BME280;21128;50.016;20.002;2022-07-03T06:21:49;99359.96;;;20.10;99.86
34921;BME280;21128;50.016;20.002;2022-07-03T06:24:16;99366.23;;;20.23;99.81
34921;BME280;21128;50.016;20.002;2022-07-03T06:26:43;99368.73;;;20.46;99.06
34921;BME280;21128;50.016;20.002;2022-07-03T06:29:10;99357.77;;;20.63;99.14
34921;BME280;21128;50.016;20.002;2022-07-03T06:31:50;99361.31;;;20.70;97.80
34921;BME280;21128;50.016;20.002;2022-07-03T06:34:17;99356.39;;;20.73;97.03
34921;BME280;21128;50.016;20.002;2022-07-03T06:36:44;99364.61;;;20.72;97.17
34921;BME280;21128;50.016;20.002;2022-07-03T06:39:11;99357.00;;;20.69;96.91
34921;BME280;21128;50.016;20.002;2022-07-03T06:41:37;99365.23;;;20.74;96.20
34921;BME280;21128;50.016;20.002;2022-07-03T06:44:04;99356.84;;;20.77;97.02
34921;BME280;21128;50.016;20.002;2022-07-03T06:46:31;99354.85;;;20.86;96.70
34921;BME280;21128;50.016;20.002;2022-07-03T06:48:58;99357.19;;;21.02;96.89
34921;BME280;21128;50.016;20.002;2022-07-03T06:51:25;99349.66;;;21.12;95.64
34921;BME280;21128;50.016;20.002;2022-07-03T06:53:51;99353.41;;;21.24;95.39
34921;BME280;21128;50.016;20.002;2022-07-03T06:56:18;99357.22;;;21.43;96.20
34921;BME280;21128;50.016;20.002;2022-07-03T06:58:45;99343.06;;;21.49;94.79
34921;BME280;21128;50.016;20.002;2022-07-03T07:01:12;99342.58;;;21.32;93.90
34921;BME280;21128;50.016;20.002;2022-07-03T07:03:38;99354.95;;;21.40;93.53
34921;BME280;21128;50.016;20.002;2022-07-03T07:06:05;99350.88;;;21.44;92.29
34921;BME280;21128;50.016;20.002;2022-07-03T07:08:39;99345.70;;;21.43;93.06
34921;BME280;21128;50.016;20.002;2022-07-03T07:11:06;99352.34;;;21.53;93.70
34921;BME280;21128;50.016;20.002;2022-07-03T07:13:33;99341.30;;;21.70;93.83
34921;BME280;21128;50.016;20.002;2022-07-03T07:16:00;99339.85;;;21.74;91.16
34921;BME280;21128;50.016;20.002;2022-07-03T07:18:27;99336.95;;;21.69;91.59
34921;BME280;21128;50.016;20.002;2022-07-03T07:20:54;99333.62;;;21.60;91.06
34921;BME280;21128;50.016;20.002;2022-07-03T07:23:21;99337.13;;;21.60;91.94
34921;BME280;21128;50.016;20.002;2022-07-03T07:25:48;99332.88;;;21.79;92.26
34921;BME280;21128;50.016;20.002;2022-07-03T07:28:15;99331.68;;;21.95;91.90
34921;BME280;21128;50.016;20.002;2022-07-03T07:30:55;99331.48;;;22.03;89.83
34921;BME280;21128;50.016;20.002;2022-07-03T07:33:30;99326.51;;;21.93;88.56
34921;BME280;21128;50.016;20.002;2022-07-03T07:35:57;99331.68;;;21.95;90.04
34921;BME280;21128;50.016;20.002;2022-07-03T07:38:24;99322.81;;;22.01;89.44
34921;BME280;21128;50.016;20.002;2022-07-03T07:40:50;99321.19;;;22.07;89.37
34921;BME280;21128;50.016;20.002;2022-07-03T07:43:17;99327.41;;;22.21;89.15
34921;BME280;21128;50.016;20.002;2022-07-03T07:45:44;99327.39;;;22.27;88.01
34921;BME280;21128;50.016;20.002;2022-07-03T07:48:11;99322.67;;;22.23;87.33
34921;BME280;21128;50.016;20.002;2022-07-03T07:50:38;99319.59;;;22.12;87.78
34921;BME280;21128;50.016;20.002;2022-07-03T07:53:04;99314.01;;;22.07;87.47
34921;BME280;21128;50.016;20.002;2022-07-03T07:55:31;99308.06;;;22.12;88.07
34921;BME280;21128;50.016;20.002;2022-07-03T07:57:58;99311.90;;;22.03;87.15
34921;BME280;21128;50.016;20.002;2022-07-03T08:00:32;99302.64;;;21.92;86.10
34921;BME280;21128;50.016;20.002;2022-07-03T08:02:58;99303.04;;;21.82;87.19
34921;BME280;21128;50.016;20.002;2022-07-03T08:05:44;99298.11;;;21.92;86.83
34921;BME280;21128;50.016;20.002;2022-07-03T08:08:15;99308.06;;;22.12;87.53
34921;BME280;21128;50.016;20.002;2022-07-03T08:10:49;99300.22;;;22.24;87.36
34921;BME280;21128;50.016;20.002;2022-07-03T08:13:18;99301.45;;;22.47;86.92
34921;BME280;21128;50.016;20.002;2022-07-03T08:15:45;99302.02;;;22.76;86.64
34921;BME280;21128;50.016;20.002;2022-07-03T08:18:16;99296.84;;;22.94;86.11
34921;BME280;21128;50.016;20.002;2022-07-03T08:20:42;99303.81;;;23.09;85.60
34921;BME280;21128;50.016;20.002;2022-07-03T08:23:15;99288.92;;;23.19;85.14
34921;BME280;21128;50.016;20.002;2022-07-03T08:25:43;99299.84;;;23.24;85.26
34921;BME280;21128;50.016;20.002;2022-07-03T08:28:10;99302.97;;;23.15;83.68
34921;BME280;21128;50.016;20.002;2022-07-03T08:30:36;99297.25;;;23.05;84.60
34921;BME280;21128;50.016;20.002;2022-07-03T08:33:10;99298.91;;;22.92;83.57
34921;BME280;21128;50.016;20.002;2022-07-03T08:35:37;99302.20;;;22.94;84.58
34921;BME280;21128;50.016;20.002;2022-07-03T08:38:03;99296.38;;;23.11;83.96
34921;BME280;21128;50.016;20.002;2022-07-03T08:40:31;99300.46;;;23.20;84.14
34921;BME280;21128;50.016;20.002;2022-07-03T08:42:59;99289.55;;;23.21;83.81
34921;BME280;21128;50.016;20.002;2022-07-03T08:45:30;99286.05;;;23.21;83.63
34921;BME280;21128;50.016;20.002;2022-07-03T08:48:00;99286.29;;;23.13;83.17
34921;BME280;21128;50.016;20.002;2022-07-03T08:50:32;99287.75;;;23.02;82.61
34921;BME280;21128;50.016;20.002;2022-07-03T08:52:59;99289.39;;;23.03;82.54
34921;BME280;21128;50.016;20.002;2022-07-03T08:55:26;99277.45;;;23.06;83.18
34921;BME280;21128;50.016;20.002;2022-07-03T08:58:00;99286.11;;;23.01;82.63
34921;BME280;21128;50.016;20.002;2022-07-03T09:00:28;99283.25;;;22.96;82.42
34921;BME280;21128;50.016;20.002;2022-07-03T09:03:02;99274.13;;;23.03;82.63
34921;BME280;21128;50.016;20.002;2022-07-03T09:05:30;99271.53;;;23.35;82.74
34921;BME280;21128;50.016;20.002;2022-07-03T09:07:59;99273.02;;;23.69;82.81
34921;BME280;21128;50.016;20.002;2022-07-03T09:10:28;99271.81;;;23.97;81.96
34921;BME280;21128;50.016;20.002;2022-07-03T09:12:55;99276.78;;;24.18;80.27
34921;BME280;21128;50.016;20.002;2022-07-03T09:15:29;99270.55;;;24.24;79.32
34921;BME280;21128;50.016;20.002;2022-07-03T09:18:14;99259.95;;;24.29;78.82
34921;BME280;21128;50.016;20.002;2022-07-03T09:20:41;99264.30;;;24.30;78.58
34921;BME280;21128;50.016;20.002;2022-07-03T09:23:15;99264.13;;;24.50;79.00
34921;BME280;21128;50.016;20.002;2022-07-03T09:26:01;99264.61;;;24.84;78.16
34921;BME280;21128;50.016;20.002;2022-07-03T09:28:52;99264.39;;;25.04;76.88
34921;BME280;21128;50.016;20.002;2022-07-03T09:31:21;99262.96;;;25.19;76.84
34921;BME280;21128;50.016;20.002;2022-07-03T09:34:00;99257.53;;;25.08;76.34
34921;BME280;21128;50.016;20.002;2022-07-03T09:36:45;99256.70;;;24.89;76.21
34921;BME280;21128;50.016;20.002;2022-07-03T09:41:55;99260.11;;;24.96;76.78
34921;BME280;21128;50.016;20.002;2022-07-03T09:44:40;99258.05;;;25.16;76.38
34921;BME280;21128;50.016;20.002;2022-07-03T09:47:24;99259.06;;;25.34;70.90
34921;BME280;21128;50.016;20.002;2022-07-03T09:49:58;99254.18;;;25.42;70.40
34921;BME280;21128;50.016;20.002;2022-07-03T09:52:47;99257.86;;;25.60;69.44
34921;BME280;21128;50.016;20.002;2022-07-03T09:55:17;99261.14;;;25.62;68.13
34921;BME280;21128;50.016;20.002;2022-07-03T10:00:21;99246.72;;;25.74;68.32
34921;BME280;21128;50.016;20.002;2022-07-03T10:03:03;99242.38;;;25.73;66.57
34921;BME280;21128;50.016;20.002;2022-07-03T10:08:04;99248.73;;;25.91;67.25
34921;BME280;21128;50.016;20.002;2022-07-03T10:10:36;99243.59;;;26.13;65.52
34921;BME280;21128;50.016;20.002;2022-07-03T10:13:11;99244.89;;;26.22;65.64
34921;BME280;21128;50.016;20.002;2022-07-03T10:15:39;99239.28;;;26.35;65.74
34921;BME280;21128;50.016;20.002;2022-07-03T10:18:11;99237.39;;;26.71;65.17
34921;BME280;21128;50.016;20.002;2022-07-03T10:23:09;99233.80;;;27.17;63.53
34921;BME280;21128;50.016;20.002;2022-07-03T10:25:40;99231.61;;;27.31;63.38
34921;BME280;21128;50.016;20.002;2022-07-03T10:28:07;99223.55;;;27.47;63.34
34921;BME280;21128;50.016;20.002;2022-07-03T10:30:34;99213.80;;;27.30;61.11
34921;BME280;21128;50.016;20.002;2022-07-03T10:33:16;99224.03;;;26.76;60.52
34921;BME280;21128;50.016;20.002;2022-07-03T10:35:48;99224.31;;;26.51;61.11
34921;BME280;21128;50.016;20.002;2022-07-03T10:43:48;99210.03;;;26.90;62.13
34921;BME280;21128;50.016;20.002;2022-07-03T10:46:34;99204.59;;;27.14;60.85
34921;BME280;21128;50.016;20.002;2022-07-03T11:02:39;99186.05;;;28.13;58.47
34921;BME280;21128;50.016;20.002;2022-07-03T11:05:17;99172.29;;;28.31;58.12
34921;BME280;21128;50.016;20.002;2022-07-03T11:23:28;99167.17;;;28.96;52.95
34921;BME280;21128;50.016;20.002;2022-07-03T11:25:58;99159.58;;;28.93;52.57
34921;BME280;21128;50.016;20.002;2022-07-03T11:41:22;99155.48;;;29.76;50.02
34921;BME280;21128;50.016;20.002;2022-07-03T11:46:26;99158.17;;;30.08;47.22
34921;BME280;21128;50.016;20.002;2022-07-03T11:49:12;99162.69;;;29.97;45.12
34921;BME280;21128;50.016;20.002;2022-07-03T11:51:42;99161.77;;;29.82;45.39
34921;BME280;21128;50.016;20.002;2022-07-03T11:54:15;99159.44;;;29.95;45.75
34921;BME280;21128;50.016;20.002;2022-07-03T11:56:42;99156.41;;;29.92;43.68
34921;BME280;21128;50.016;20.002;2022-07-03T11:59:09;99150.47;;;29.58;43.50
34921;BME280;21128;50.016;20.002;2022-07-03T12:01:37;99139.72;;;29.36;43.87
34921;BME280;21128;50.016;20.002;2022-07-03T12:04:16;99144.78;;;29.27;44.09
34921;BME280;21128;50.016;20.002;2022-07-03T12:06:44;99144.88;;;29.10;43.00
34921;BME280;21128;50.016;20.002;2022-07-03T12:09:14;99140.48;;;28.82;43.51
34921;BME280;21128;50.016;20.002;2022-07-03T12:11:41;99144.77;;;28.78;44.34
34921;BME280;21128;50.016;20.002;2022-07-03T12:14:08;99137.03;;;28.87;44.08
34921;BME280;21128;50.016;20.002;2022-07-03T12:16:35;99130.63;;;29.20;44.44
34921;BME280;21128;50.016;20.002;2022-07-03T12:19:05;99133.56;;;29.46;44.53
34921;BME280;21128;50.016;20.002;2022-07-03T12:21:37;99132.09;;;29.60;43.73
34921;BME280;21128;50.016;20.002;2022-07-03T12:24:12;99120.32;;;29.81;43.29
34921;BME280;21128;50.016;20.002;2022-07-03T12:26:40;99121.51;;;29.95;43.23
34921;BME280;21128;50.016;20.002;2022-07-03T12:29:09;99121.36;;;30.12;42.14
34921;BME280;21128;50.016;20.002;2022-07-03T12:31:44;99114.64;;;30.25;42.97
34921;BME280;21128;50.016;20.002;2022-07-03T12:34:25;99117.48;;;30.55;42.85
34921;BME280;21128;50.016;20.002;2022-07-03T12:36:59;99110.55;;;30.80;42.38
34921;BME280;21128;50.016;20.002;2022-07-03T12:39:43;99103.81;;;31.03;42.24
34921;BME280;21128;50.016;20.002;2022-07-03T12:42:24;99106.84;;;31.32;41.92
34921;BME280;21128;50.016;20.002;2022-07-03T12:44:58;99099.77;;;31.51;41.31
34921;BME280;21128;50.016;20.002;2022-07-03T12:47:27;99101.91;;;31.19;39.58
34921;BME280;21128;50.016;20.002;2022-07-03T12:49:59;99106.20;;;30.84;39.83
34921;BME280;21128;50.016;20.002;2022-07-03T12:52:28;99096.46;;;30.88;40.36
34921;BME280;21128;50.016;20.002;2022-07-03T12:54:57;99104.34;;;31.10;40.47
34921;BME280;21128;50.016;20.002;2022-07-03T12:57:26;99097.62;;;31.38;40.31
34921;BME280;21128;50.016;20.002;2022-07-03T13:00:17;99101.13;;;31.59;39.87
34921;BME280;21128;50.016;20.002;2022-07-03T13:02:46;99092.16;;;31.74;39.59
34921;BME280;21128;50.016;20.002;2022-07-03T13:05:20;99085.91;;;31.83;39.27
34921;BME280;21128;50.016;20.002;2022-07-03T13:07:50;99080.50;;;31.58;38.92
34921;BME280;21128;50.016;20.002;2022-07-03T13:10:20;99078.59;;;31.58;39.25
34921;BME280;21128;50.016;20.002;2022-07-03T13:12:52;99072.09;;;31.54;39.25
34921;BME280;21128;50.016;20.002;2022-07-03T13:15:23;99074.80;;;31.49;39.32
34921;BME280;21128;50.016;20.002;2022-07-03T13:20:21;99075.08;;;31.32;38.96
34921;BME280;21128;50.016;20.002;2022-07-03T13:22:59;99071.81;;;31.20;39.32
34921;BME280;21128;50.016;20.002;2022-07-03T13:25:27;99075.03;;;30.87;38.67
34921;BME280;21128;50.016;20.002;2022-07-03T13:28:12;99063.83;;;30.63;39.29
34921;BME280;21128;50.016;20.002;2022-07-03T13:30:42;99067.40;;;30.73;39.00
34921;BME280;21128;50.016;20.002;2022-07-03T13:33:16;99070.13;;;30.94;39.74
34921;BME280;21128;50.016;20.002;2022-07-03T13:35:48;99064.47;;;31.05;39.17
34921;BME280;21128;50.016;20.002;2022-07-03T13:38:15;99070.45;;;31.13;39.13
34921;BME280;21128;50.016;20.002;2022-07-03T13:40:42;99064.50;;;31.46;39.63
34921;BME280;21128;50.016;20.002;2022-07-03T13:43:09;99055.78;;;31.80;38.94
34921;BME280;21128;50.016;20.002;2022-07-03T13:45:36;99054.08;;;32.04;38.75
34921;BME280;21128;50.016;20.002;2022-07-03T13:48:03;99055.63;;;32.31;38.70
34921;BME280;21128;50.016;20.002;2022-07-03T13:50:30;99043.52;;;32.57;37.68
34921;BME280;21128;50.016;20.002;2022-07-03T13:53:03;99046.30;;;32.47;37.28
34921;BME280;21128;50.016;20.002;2022-07-03T13:55:30;99046.98;;;32.08;37.04
34921;BME280;21128;50.016;20.002;2022-07-03T13:57:57;99043.17;;;32.09;36.92
34921;BME280;21128;50.016;20.002;2022-07-03T14:00:24;99043.45;;;32.13;37.23
34921;BME280;21128;50.016;20.002;2022-07-03T14:02:51;99044.31;;;31.98;36.85
34921;BME280;21128;50.016;20.002;2022-07-03T14:05:18;99039.93;;;32.02;37.23
34921;BME280;21128;50.016;20.002;2022-07-03T14:07:51;99038.30;;;32.01;36.81
34921;BME280;21128;50.016;20.002;2022-07-03T14:10:18;99027.27;;;31.62;36.60
34921;BME280;21128;50.016;20.002;2022-07-03T14:12:51;99025.39;;;31.47;37.05
34921;BME280;21128;50.016;20.002;2022-07-03T14:15:18;99029.98;;;31.52;37.21
34921;BME280;21128;50.016;20.002;2022-07-03T14:17:45;99022.39;;;31.49;36.15
34921;BME280;21128;50.016;20.002;2022-07-03T14:20:12;99022.13;;;31.04;36.83
34921;BME280;21128;50.016;20.002;2022-07-03T14:22:39;99025.91;;;30.93;36.78
34921;BME280;21128;50.016;20.002;2022-07-03T14:25:07;99017.21;;;30.76;37.38
34921;BME280;21128;50.016;20.002;2022-07-03T14:27:36;99016.16;;;31.07;38.07
34921;BME280;21128;50.016;20.002;2022-07-03T14:30:28;99017.22;;;31.57;37.93
34921;BME280;21128;50.016;20.002;2022-07-03T14:33:26;99016.38;;;31.77;37.20